Daytona Beach International Airport
KDAB : now visible

Airfield :











YOU CAN JOIN US ON...

 
LOGIN :

Register | Disclaimer

   EN    FR    IT 

 









Legend :    VFR   Marginal VFR   IFR   Intensive IFR   Very Intensive IFR
Visi :
Ceiling :
>= 8 km
>= 3000ft
5 to 8 km
1000 to 3000 ft
1500m to 5 km
500 to 1000 ft
800 to 1500m
200 to 500 ft
< 800m
< 200 ft
Symbols :   Thunderstorms  Fog  Heavy snow  Heavy precipitations  Wind > 20 kt






- Airport Elevation : 34 ft
- IATA code : DAB


KDAB - Daytona Beach International

CURRENT METAR :
  • 040653Z 00000KT 8SM MIFG CLR 16/15 A3021 RMK AO2 SLP231 T01560150

EXPIRED METARs :
  • 040553Z 00000KT 7SM MIFG CLR 16/16 A3023 RMK AO2 SLP236 T01610156 10200 20161 58017
  • 040453Z 00000KT 7SM CLR 16/16 A3025 RMK AO2 SLP243 T01610156 402670161

TAF KDAB
Valid from the 04 at 06:00 until the 05 at 06:00 UTC


040527Z 0406/0506 00000KT 6SM BR SKC
TEMPO 0408/0412 2SM BR
FM041500 32006KT P6SM SCT040 SCT250
FM042000 03008KT P6SM FEW045 SCT250
FM050200 01003KT P6SM SCT200
KZJX FIR / North America



MET'MAP, your aeronautical weather chart ! - Copyright ORBIFLY December 2007 - Disclaimer

ORBIFLY MET'MAP TEAM :

Programming & Development : Alexandra Zaïnal
Original concept : Baudouin d'Aumeries
Technical & hardware support : Manuel Goepfert
Assistance : Marc-Olivier Méhu




SOURCES & CREDITS :

   NOAA       Earth
Advisory